ADS weather

Addison Airport
Dallas, Texas, United States

Public forecast

Using degrees Fahrenheit for public forecast. Weather courtesy of forecast.io.

Current aviation weather report (METAR) for Addison Airport

Retrieved 2019/10/20 23:47 UTC (1 hour ago):

KADS 202347Z 17012G18KT 10SM SCT039 28/19 A2963

Closest aviation forecast (TAF) to Addison Airport

Closest forecast is Dallas Love Field, 7.3 nm (13.6 km) S. Retrieved 2019-10-21 00:27 UTC (36 minutes ago):

TAF KDAL 202325Z 2100/2124 18012G22KT P6SM VCSH SCT050 FM210500 18014KT P6SM VCTS SCT040 BKN060CB FM210700 26020G30KT 1SM +TSRA OVC025CB FM210900 33013KT P6SM VCSH SCT090 BKN150 FM211100 35011KT P6SM SKC